sensor_id;sensor_type;location;lat;lon;timestamp;P1;durP1;ratioP1;P2;durP2;ratioP2
47778;SDS011;33538;48.432;11.350;2023-04-08T00:00:01;6.38;;;4.35;;
47778;SDS011;33538;48.432;11.350;2023-04-08T00:02:29;13.45;;;4.70;;
47778;SDS011;33538;48.432;11.350;2023-04-08T00:04:57;8.40;;;4.05;;
47778;SDS011;33538;48.432;11.350;2023-04-08T00:07:24;7.18;;;4.30;;
47778;SDS011;33538;48.432;11.350;2023-04-08T00:09:51;7.82;;;4.90;;
47778;SDS011;33538;48.432;11.350;2023-04-08T00:12:18;7.60;;;4.05;;
47778;SDS011;33538;48.432;11.350;2023-04-08T00:14:44;7.78;;;4.53;;
47778;SDS011;33538;48.432;11.350;2023-04-08T00:17:11;7.32;;;4.63;;
47778;SDS011;33538;48.432;11.350;2023-04-08T00:19:38;8.27;;;4.40;;
47778;SDS011;33538;48.432;11.350;2023-04-08T00:22:06;9.10;;;4.80;;
47778;SDS011;33538;48.432;11.350;2023-04-08T00:24:33;8.02;;;4.00;;
47778;SDS011;33538;48.432;11.350;2023-04-08T00:27:00;8.65;;;4.38;;
47778;SDS011;33538;48.432;11.350;2023-04-08T00:29:26;7.82;;;4.40;;
47778;SDS011;33538;48.432;11.350;2023-04-08T00:31:53;9.45;;;4.90;;
47778;SDS011;33538;48.432;11.350;2023-04-08T00:34:20;7.60;;;4.05;;
47778;SDS011;33538;48.432;11.350;2023-04-08T00:36:47;8.35;;;4.45;;
47778;SDS011;33538;48.432;11.350;2023-04-08T00:39:15;7.65;;;4.65;;
47778;SDS011;33538;48.432;11.350;2023-04-08T00:41:42;9.10;;;4.95;;
47778;SDS011;33538;48.432;11.350;2023-04-08T00:44:08;10.68;;;5.40;;
47778;SDS011;33538;48.432;11.350;2023-04-08T00:46:36;8.60;;;4.85;;
47778;SDS011;33538;48.432;11.350;2023-04-08T00:49:04;9.35;;;5.15;;
47778;SDS011;33538;48.432;11.350;2023-04-08T00:51:31;6.85;;;4.20;;
47778;SDS011;33538;48.432;11.350;2023-04-08T00:53:59;9.30;;;4.85;;
47778;SDS011;33538;48.432;11.350;2023-04-08T00:56:27;9.68;;;5.40;;
47778;SDS011;33538;48.432;11.350;2023-04-08T00:58:54;10.27;;;4.97;;
47778;SDS011;33538;48.432;11.350;2023-04-08T01:01:21;13.48;;;5.60;;
47778;SDS011;33538;48.432;11.350;2023-04-08T01:03:56;9.88;;;5.25;;
47778;SDS011;33538;48.432;11.350;2023-04-08T01:06:28;7.70;;;4.57;;
47778;SDS011;33538;48.432;11.350;2023-04-08T01:08:59;8.43;;;5.25;;
47778;SDS011;33538;48.432;11.350;2023-04-08T01:11:31;7.88;;;4.50;;
47778;SDS011;33538;48.432;11.350;2023-04-08T01:14:00;8.93;;;5.22;;
47778;SDS011;33538;48.432;11.350;2023-04-08T01:16:29;9.07;;;4.82;;
47778;SDS011;33538;48.432;11.350;2023-04-08T01:18:56;14.05;;;5.68;;
47778;SDS011;33538;48.432;11.350;2023-04-08T01:21:23;10.55;;;6.05;;
47778;SDS011;33538;48.432;11.350;2023-04-08T01:23:53;8.45;;;5.03;;
47778;SDS011;33538;48.432;11.350;2023-04-08T01:26:27;9.90;;;5.32;;
47778;SDS011;33538;48.432;11.350;2023-04-08T01:28:55;11.68;;;4.97;;
47778;SDS011;33538;48.432;11.350;2023-04-08T01:31:24;9.73;;;5.00;;
47778;SDS011;33538;48.432;11.350;2023-04-08T01:33:52;9.05;;;5.30;;
47778;SDS011;33538;48.432;11.350;2023-04-08T01:36:19;8.68;;;4.90;;
47778;SDS011;33538;48.432;11.350;2023-04-08T01:38:48;12.55;;;4.85;;
47778;SDS011;33538;48.432;11.350;2023-04-08T01:41:16;11.15;;;5.50;;
47778;SDS011;33538;48.432;11.350;2023-04-08T01:43:45;8.27;;;4.88;;
47778;SDS011;33538;48.432;11.350;2023-04-08T01:46:13;9.85;;;4.82;;
47778;SDS011;33538;48.432;11.350;2023-04-08T01:48:40;9.02;;;5.13;;
47778;SDS011;33538;48.432;11.350;2023-04-08T01:51:09;10.07;;;5.20;;
47778;SDS011;33538;48.432;11.350;2023-04-08T01:53:37;9.82;;;5.53;;
47778;SDS011;33538;48.432;11.350;2023-04-08T01:56:04;12.05;;;5.35;;
47778;SDS011;33538;48.432;11.350;2023-04-08T01:58:36;8.65;;;5.07;;
47778;SDS011;33538;48.432;11.350;2023-04-08T02:01:08;8.70;;;5.30;;
47778;SDS011;33538;48.432;11.350;2023-04-08T02:03:37;10.35;;;5.50;;
47778;SDS011;33538;48.432;11.350;2023-04-08T02:06:06;9.80;;;4.68;;
47778;SDS011;33538;48.432;11.350;2023-04-08T02:08:33;9.13;;;5.45;;
47778;SDS011;33538;48.432;11.350;2023-04-08T02:11:00;10.43;;;5.35;;
47778;SDS011;33538;48.432;11.350;2023-04-08T02:13:27;11.50;;;6.13;;
47778;SDS011;33538;48.432;11.350;2023-04-08T02:15:56;10.63;;;5.55;;
47778;SDS011;33538;48.432;11.350;2023-04-08T02:18:29;10.17;;;5.00;;
47778;SDS011;33538;48.432;11.350;2023-04-08T02:21:01;9.90;;;5.50;;
47778;SDS011;33538;48.432;11.350;2023-04-08T02:23:33;10.40;;;5.50;;
47778;SDS011;33538;48.432;11.350;2023-04-08T02:26:03;11.65;;;5.30;;
47778;SDS011;33538;48.432;11.350;2023-04-08T02:28:33;9.02;;;5.28;;
47778;SDS011;33538;48.432;11.350;2023-04-08T02:31:01;11.85;;;6.15;;
47778;SDS011;33538;48.432;11.350;2023-04-08T02:33:30;11.25;;;4.93;;
47778;SDS011;33538;48.432;11.350;2023-04-08T02:35:59;11.55;;;5.57;;
47778;SDS011;33538;48.432;11.350;2023-04-08T02:38:28;10.10;;;5.70;;
47778;SDS011;33538;48.432;11.350;2023-04-08T02:40:55;10.45;;;5.53;;
47778;SDS011;33538;48.432;11.350;2023-04-08T02:43:22;8.07;;;4.75;;
47778;SDS011;33538;48.432;11.350;2023-04-08T02:45:49;9.45;;;5.47;;
47778;SDS011;33538;48.432;11.350;2023-04-08T02:48:16;10.02;;;5.63;;
47778;SDS011;33538;48.432;11.350;2023-04-08T02:50:44;12.93;;;6.07;;
47778;SDS011;33538;48.432;11.350;2023-04-08T02:53:11;10.10;;;5.32;;
47778;SDS011;33538;48.432;11.350;2023-04-08T02:55:38;8.75;;;5.18;;
47778;SDS011;33538;48.432;11.350;2023-04-08T02:58:04;11.90;;;6.13;;
47778;SDS011;33538;48.432;11.350;2023-04-08T03:00:31;11.07;;;6.13;;
47778;SDS011;33538;48.432;11.350;2023-04-08T03:02:58;9.73;;;5.50;;
47778;SDS011;33538;48.432;11.350;2023-04-08T03:05:25;11.82;;;5.60;;
47778;SDS011;33538;48.432;11.350;2023-04-08T03:07:53;10.98;;;5.18;;
47778;SDS011;33538;48.432;11.350;2023-04-08T03:10:20;12.45;;;5.85;;
47778;SDS011;33538;48.432;11.350;2023-04-08T03:12:47;8.95;;;5.25;;
47778;SDS011;33538;48.432;11.350;2023-04-08T03:15:14;9.35;;;5.45;;
47778;SDS011;33538;48.432;11.350;2023-04-08T03:17:40;12.05;;;6.05;;
47778;SDS011;33538;48.432;11.350;2023-04-08T03:20:08;11.25;;;5.78;;
47778;SDS011;33538;48.432;11.350;2023-04-08T03:22:35;11.48;;;5.68;;
47778;SDS011;33538;48.432;11.350;2023-04-08T03:25:04;10.15;;;5.00;;
47778;SDS011;33538;48.432;11.350;2023-04-08T03:27:31;10.25;;;5.55;;
47778;SDS011;33538;48.432;11.350;2023-04-08T03:29:58;12.15;;;6.18;;
47778;SDS011;33538;48.432;11.350;2023-04-08T03:32:25;11.68;;;6.97;;
47778;SDS011;33538;48.432;11.350;2023-04-08T03:34:52;13.98;;;6.30;;
47778;SDS011;33538;48.432;11.350;2023-04-08T03:37:19;11.45;;;6.07;;
47778;SDS011;33538;48.432;11.350;2023-04-08T03:39:46;10.48;;;6.00;;
47778;SDS011;33538;48.432;11.350;2023-04-08T03:42:14;9.85;;;5.95;;
47778;SDS011;33538;48.432;11.350;2023-04-08T03:44:41;13.13;;;6.80;;
47778;SDS011;33538;48.432;11.350;2023-04-08T03:47:08;12.38;;;6.93;;
47778;SDS011;33538;48.432;11.350;2023-04-08T03:49:34;13.85;;;6.15;;
47778;SDS011;33538;48.432;11.350;2023-04-08T03:52:01;12.73;;;6.55;;
47778;SDS011;33538;48.432;11.350;2023-04-08T03:54:28;11.77;;;6.75;;
47778;SDS011;33538;48.432;11.350;2023-04-08T03:56:55;13.82;;;6.60;;
47778;SDS011;33538;48.432;11.350;2023-04-08T03:59:23;13.85;;;7.57;;
47778;SDS011;33538;48.432;11.350;2023-04-08T04:01:50;14.63;;;6.93;;
47778;SDS011;33538;48.432;11.350;2023-04-08T04:04:17;13.00;;;6.30;;
47778;SDS011;33538;48.432;11.350;2023-04-08T04:06:44;14.10;;;7.75;;
47778;SDS011;33538;48.432;11.350;2023-04-08T04:09:11;13.13;;;6.35;;
47778;SDS011;33538;48.432;11.350;2023-04-08T04:11:37;13.85;;;6.57;;
47778;SDS011;33538;48.432;11.350;2023-04-08T04:14:04;12.73;;;6.75;;
47778;SDS011;33538;48.432;11.350;2023-04-08T04:16:32;13.52;;;7.10;;
47778;SDS011;33538;48.432;11.350;2023-04-08T04:18:59;13.90;;;6.95;;
47778;SDS011;33538;48.432;11.350;2023-04-08T04:21:26;18.10;;;8.18;;
47778;SDS011;33538;48.432;11.350;2023-04-08T04:23:53;14.48;;;7.53;;
47778;SDS011;33538;48.432;11.350;2023-04-08T04:26:19;16.50;;;7.82;;
47778;SDS011;33538;48.432;11.350;2023-04-08T04:28:46;15.32;;;7.32;;
47778;SDS011;33538;48.432;11.350;2023-04-08T04:31:17;16.92;;;7.68;;
47778;SDS011;33538;48.432;11.350;2023-04-08T04:33:46;17.95;;;8.40;;
47778;SDS011;33538;48.432;11.350;2023-04-08T04:36:13;14.93;;;7.95;;
47778;SDS011;33538;48.432;11.350;2023-04-08T04:38:40;14.75;;;7.95;;
47778;SDS011;33538;48.432;11.350;2023-04-08T04:41:07;17.88;;;7.82;;
47778;SDS011;33538;48.432;11.350;2023-04-08T04:43:34;14.02;;;7.82;;
47778;SDS011;33538;48.432;11.350;2023-04-08T04:46:01;16.25;;;7.85;;
47778;SDS011;33538;48.432;11.350;2023-04-08T04:48:28;14.93;;;7.45;;
47778;SDS011;33538;48.432;11.350;2023-04-08T04:50:56;17.23;;;8.60;;
47778;SDS011;33538;48.432;11.350;2023-04-08T04:53:24;17.83;;;8.35;;
47778;SDS011;33538;48.432;11.350;2023-04-08T04:55:51;14.82;;;7.43;;
47778;SDS011;33538;48.432;11.350;2023-04-08T04:58:18;14.68;;;7.65;;
47778;SDS011;33538;48.432;11.350;2023-04-08T05:00:44;17.83;;;9.10;;
47778;SDS011;33538;48.432;11.350;2023-04-08T05:03:11;16.25;;;8.68;;
47778;SDS011;33538;48.432;11.350;2023-04-08T05:05:39;16.23;;;8.20;;
47778;SDS011;33538;48.432;11.350;2023-04-08T05:08:07;14.85;;;7.72;;
47778;SDS011;33538;48.432;11.350;2023-04-08T05:10:34;17.13;;;7.75;;
47778;SDS011;33538;48.432;11.350;2023-04-08T05:13:01;16.25;;;8.25;;
47778;SDS011;33538;48.432;11.350;2023-04-08T05:15:27;17.63;;;8.18;;
47778;SDS011;33538;48.432;11.350;2023-04-08T05:17:54;15.90;;;8.48;;
47778;SDS011;33538;48.432;11.350;2023-04-08T05:20:21;17.63;;;8.73;;
47778;SDS011;33538;48.432;11.350;2023-04-08T05:22:48;17.63;;;8.65;;
47778;SDS011;33538;48.432;11.350;2023-04-08T05:25:16;15.38;;;8.13;;
47778;SDS011;33538;48.432;11.350;2023-04-08T05:27:43;20.15;;;9.10;;
47778;SDS011;33538;48.432;11.350;2023-04-08T05:30:10;19.60;;;8.85;;
47778;SDS011;33538;48.432;11.350;2023-04-08T05:32:37;21.73;;;9.82;;
47778;SDS011;33538;48.432;11.350;2023-04-08T05:35:04;16.70;;;8.57;;
47778;SDS011;33538;48.432;11.350;2023-04-08T05:37:32;21.52;;;9.00;;
47778;SDS011;33538;48.432;11.350;2023-04-08T05:39:58;18.27;;;8.85;;
47778;SDS011;33538;48.432;11.350;2023-04-08T05:42:27;19.17;;;9.20;;
47778;SDS011;33538;48.432;11.350;2023-04-08T05:44:53;22.08;;;9.82;;
47778;SDS011;33538;48.432;11.350;2023-04-08T05:47:20;19.15;;;9.13;;
47778;SDS011;33538;48.432;11.350;2023-04-08T05:49:47;16.30;;;8.50;;
47778;SDS011;33538;48.432;11.350;2023-04-08T05:52:16;19.80;;;10.05;;
47778;SDS011;33538;48.432;11.350;2023-04-08T05:54:43;19.90;;;9.55;;
47778;SDS011;33538;48.432;11.350;2023-04-08T05:57:10;17.40;;;8.02;;
47778;SDS011;33538;48.432;11.350;2023-04-08T05:59:38;18.33;;;9.27;;
47778;SDS011;33538;48.432;11.350;2023-04-08T06:02:04;20.05;;;8.70;;
47778;SDS011;33538;48.432;11.350;2023-04-08T06:04:31;17.27;;;8.43;;
47778;SDS011;33538;48.432;11.350;2023-04-08T06:06:58;19.55;;;9.07;;
47778;SDS011;33538;48.432;11.350;2023-04-08T06:09:25;20.92;;;9.20;;
47778;SDS011;33538;48.432;11.350;2023-04-08T06:11:52;19.52;;;9.68;;
47778;SDS011;33538;48.432;11.350;2023-04-08T06:14:19;22.58;;;9.63;;
47778;SDS011;33538;48.432;11.350;2023-04-08T06:16:47;18.58;;;9.73;;
47778;SDS011;33538;48.432;11.350;2023-04-08T06:19:14;19.48;;;9.35;;
47778;SDS011;33538;48.432;11.350;2023-04-08T06:21:41;19.77;;;10.40;;
47778;SDS011;33538;48.432;11.350;2023-04-08T06:24:07;17.10;;;8.88;;
47778;SDS011;33538;48.432;11.350;2023-04-08T06:26:34;17.67;;;9.00;;
47778;SDS011;33538;48.432;11.350;2023-04-08T06:29:01;18.00;;;8.98;;
47778;SDS011;33538;48.432;11.350;2023-04-08T06:31:28;20.00;;;8.98;;
47778;SDS011;33538;48.432;11.350;2023-04-08T06:33:56;20.05;;;9.05;;
47778;SDS011;33538;48.432;11.350;2023-04-08T06:36:22;17.85;;;8.38;;
47778;SDS011;33538;48.432;11.350;2023-04-08T06:38:49;19.95;;;9.50;;
47778;SDS011;33538;48.432;11.350;2023-04-08T06:41:16;19.92;;;9.45;;
47778;SDS011;33538;48.432;11.350;2023-04-08T06:43:43;19.08;;;9.32;;
47778;SDS011;33538;48.432;11.350;2023-04-08T06:46:10;18.48;;;8.88;;
47778;SDS011;33538;48.432;11.350;2023-04-08T06:48:37;17.17;;;8.70;;
47778;SDS011;33538;48.432;11.350;2023-04-08T06:51:05;22.23;;;9.95;;
47778;SDS011;33538;48.432;11.350;2023-04-08T06:53:32;20.50;;;9.50;;
47778;SDS011;33538;48.432;11.350;2023-04-08T06:55:59;23.48;;;9.70;;
47778;SDS011;33538;48.432;11.350;2023-04-08T06:58:25;24.10;;;10.27;;
47778;SDS011;33538;48.432;11.350;2023-04-08T07:00:52;18.90;;;9.70;;
47778;SDS011;33538;48.432;11.350;2023-04-08T07:03:19;20.20;;;9.52;;
47778;SDS011;33538;48.432;11.350;2023-04-08T07:05:46;20.00;;;9.88;;
47778;SDS011;33538;48.432;11.350;2023-04-08T07:08:14;20.98;;;10.13;;
47778;SDS011;33538;48.432;11.350;2023-04-08T07:10:41;19.02;;;9.70;;
47778;SDS011;33538;48.432;11.350;2023-04-08T07:13:08;17.90;;;8.98;;
47778;SDS011;33538;48.432;11.350;2023-04-08T07:15:35;17.73;;;9.65;;
47778;SDS011;33538;48.432;11.350;2023-04-08T07:18:02;20.65;;;10.57;;
47778;SDS011;33538;48.432;11.350;2023-04-08T07:20:29;20.13;;;9.80;;
47778;SDS011;33538;48.432;11.350;2023-04-08T07:22:57;21.73;;;10.55;;
47778;SDS011;33538;48.432;11.350;2023-04-08T07:25:25;20.67;;;10.98;;
47778;SDS011;33538;48.432;11.350;2023-04-08T07:27:52;19.35;;;9.55;;
47778;SDS011;33538;48.432;11.350;2023-04-08T07:30:19;18.83;;;10.00;;
47778;SDS011;33538;48.432;11.350;2023-04-08T07:32:46;22.20;;;10.07;;
47778;SDS011;33538;48.432;11.350;2023-04-08T07:35:12;20.48;;;9.90;;
47778;SDS011;33538;48.432;11.350;2023-04-08T07:37:39;16.80;;;9.27;;
47778;SDS011;33538;48.432;11.350;2023-04-08T07:40:06;19.80;;;9.85;;
47778;SDS011;33538;48.432;11.350;2023-04-08T07:42:35;20.90;;;9.27;;
47778;SDS011;33538;48.432;11.350;2023-04-08T07:45:06;20.50;;;9.70;;
47778;SDS011;33538;48.432;11.350;2023-04-08T07:47:33;16.58;;;9.75;;
47778;SDS011;33538;48.432;11.350;2023-04-08T07:50:00;16.83;;;8.60;;
47778;SDS011;33538;48.432;11.350;2023-04-08T07:52:28;19.65;;;9.80;;
47778;SDS011;33538;48.432;11.350;2023-04-08T07:54:55;17.25;;;8.00;;
47778;SDS011;33538;48.432;11.350;2023-04-08T07:57:22;12.27;;;7.65;;
47778;SDS011;33538;48.432;11.350;2023-04-08T07:59:50;13.75;;;7.75;;
47778;SDS011;33538;48.432;11.350;2023-04-08T08:02:17;15.23;;;8.05;;
47778;SDS011;33538;48.432;11.350;2023-04-08T08:04:44;14.95;;;7.97;;
47778;SDS011;33538;48.432;11.350;2023-04-08T08:07:11;17.13;;;8.07;;
47778;SDS011;33538;48.432;11.350;2023-04-08T08:09:37;15.73;;;8.10;;
47778;SDS011;33538;48.432;11.350;2023-04-08T08:12:04;18.60;;;8.95;;
47778;SDS011;33538;48.432;11.350;2023-04-08T08:14:31;15.00;;;7.78;;
47778;SDS011;33538;48.432;11.350;2023-04-08T08:16:59;16.70;;;8.70;;
47778;SDS011;33538;48.432;11.350;2023-04-08T08:19:26;21.13;;;7.90;;
47778;SDS011;33538;48.432;11.350;2023-04-08T08:21:53;18.60;;;8.68;;
47778;SDS011;33538;48.432;11.350;2023-04-08T08:24:19;18.17;;;8.23;;
47778;SDS011;33538;48.432;11.350;2023-04-08T08:26:46;16.35;;;8.75;;
47778;SDS011;33538;48.432;11.350;2023-04-08T08:29:13;20.40;;;8.98;;
47778;SDS011;33538;48.432;11.350;2023-04-08T08:31:40;13.82;;;7.10;;
47778;SDS011;33538;48.432;11.350;2023-04-08T08:34:08;17.00;;;8.43;;
47778;SDS011;33538;48.432;11.350;2023-04-08T08:36:35;16.65;;;8.32;;
47778;SDS011;33538;48.432;11.350;2023-04-08T08:39:02;18.05;;;8.30;;
47778;SDS011;33538;48.432;11.350;2023-04-08T08:41:31;19.58;;;8.90;;
47778;SDS011;33538;48.432;11.350;2023-04-08T08:43:59;16.70;;;8.27;;
47778;SDS011;33538;48.432;11.350;2023-04-08T08:46:25;14.25;;;8.43;;
47778;SDS011;33538;48.432;11.350;2023-04-08T08:48:52;14.85;;;7.97;;
47778;SDS011;33538;48.432;11.350;2023-04-08T08:51:21;17.00;;;8.55;;
47778;SDS011;33538;48.432;11.350;2023-04-08T08:53:47;17.63;;;8.60;;
47778;SDS011;33538;48.432;11.350;2023-04-08T08:56:14;18.10;;;8.10;;
47778;SDS011;33538;48.432;11.350;2023-04-08T08:58:44;14.20;;;8.50;;
47778;SDS011;33538;48.432;11.350;2023-04-08T09:01:30;15.57;;;8.40;;
47778;SDS011;33538;48.432;11.350;2023-04-08T09:04:08;14.23;;;7.93;;
47778;SDS011;33538;48.432;11.350;2023-04-08T09:09:57;17.42;;;7.57;;
47778;SDS011;33538;48.432;11.350;2023-04-08T09:12:25;15.52;;;8.48;;
47778;SDS011;33538;48.432;11.350;2023-04-08T09:15:02;17.92;;;8.80;;
47778;SDS011;33538;48.432;11.350;2023-04-08T09:17:30;17.23;;;8.85;;
47778;SDS011;33538;48.432;11.350;2023-04-08T09:20:04;18.35;;;8.77;;
47778;SDS011;33538;48.432;11.350;2023-04-08T09:22:32;15.25;;;7.88;;
47778;SDS011;33538;48.432;11.350;2023-04-08T09:25:00;14.23;;;8.15;;
47778;SDS011;33538;48.432;11.350;2023-04-08T09:27:52;15.90;;;7.18;;
47778;SDS011;33538;48.432;11.350;2023-04-08T09:30:19;17.98;;;8.38;;
47778;SDS011;33538;48.432;11.350;2023-04-08T09:32:48;17.10;;;9.40;;
47778;SDS011;33538;48.432;11.350;2023-04-08T09:35:15;16.05;;;8.25;;
47778;SDS011;33538;48.432;11.350;2023-04-08T09:37:43;17.95;;;8.98;;
47778;SDS011;33538;48.432;11.350;2023-04-08T09:40:10;12.60;;;7.72;;
47778;SDS011;33538;48.432;11.350;2023-04-08T09:42:43;18.52;;;9.05;;
47778;SDS011;33538;48.432;11.350;2023-04-08T09:45:10;18.65;;;8.57;;
47778;SDS011;33538;48.432;11.350;2023-04-08T09:47:41;15.75;;;8.55;;
47778;SDS011;33538;48.432;11.350;2023-04-08T09:50:16;14.35;;;8.70;;
47778;SDS011;33538;48.432;11.350;2023-04-08T09:52:47;15.73;;;9.15;;
47778;SDS011;33538;48.432;11.350;2023-04-08T09:55:22;16.65;;;8.07;;
47778;SDS011;33538;48.432;11.350;2023-04-08T09:57:54;21.75;;;9.45;;
47778;SDS011;33538;48.432;11.350;2023-04-08T10:00:27;13.95;;;7.28;;
47778;SDS011;33538;48.432;11.350;2023-04-08T10:03:00;14.75;;;7.57;;
47778;SDS011;33538;48.432;11.350;2023-04-08T10:05:35;15.93;;;8.15;;
47778;SDS011;33538;48.432;11.350;2023-04-08T10:08:03;15.95;;;8.27;;
47778;SDS011;33538;48.432;11.350;2023-04-08T10:10:31;14.38;;;8.10;;
47778;SDS011;33538;48.432;11.350;2023-04-08T10:13:01;18.38;;;8.02;;
47778;SDS011;33538;48.432;11.350;2023-04-08T10:15:29;15.23;;;7.85;;
47778;SDS011;33538;48.432;11.350;2023-04-08T10:20:56;16.35;;;7.60;;
47778;SDS011;33538;48.432;11.350;2023-04-08T10:26:30;14.20;;;7.20;;
47778;SDS011;33538;48.432;11.350;2023-04-08T10:32:16;10.52;;;5.95;;
47778;SDS011;33538;48.432;11.350;2023-04-08T10:34:53;14.40;;;7.25;;
47778;SDS011;33538;48.432;11.350;2023-04-08T10:37:20;12.10;;;6.95;;
47778;SDS011;33538;48.432;11.350;2023-04-08T10:39:50;14.90;;;7.75;;
47778;SDS011;33538;48.432;11.350;2023-04-08T10:42:23;13.32;;;7.05;;
47778;SDS011;33538;48.432;11.350;2023-04-08T10:44:52;14.07;;;7.07;;
47778;SDS011;33538;48.432;11.350;2023-04-08T10:47:25;11.93;;;6.35;;
47778;SDS011;33538;48.432;11.350;2023-04-08T10:49:52;14.57;;;7.20;;
47778;SDS011;33538;48.432;11.350;2023-04-08T10:52:19;15.38;;;7.00;;
47778;SDS011;33538;48.432;11.350;2023-04-08T10:54:45;13.00;;;7.05;;
47778;SDS011;33538;48.432;11.350;2023-04-08T10:57:12;15.60;;;7.70;;
47778;SDS011;33538;48.432;11.350;2023-04-08T10:59:40;18.70;;;7.53;;
47778;SDS011;33538;48.432;11.350;2023-04-08T11:02:11;14.00;;;7.28;;
47778;SDS011;33538;48.432;11.350;2023-04-08T11:04:41;15.15;;;8.98;;
47778;SDS011;33538;48.432;11.350;2023-04-08T11:07:08;14.38;;;7.65;;
47778;SDS011;33538;48.432;11.350;2023-04-08T11:09:35;14.65;;;8.25;;
47778;SDS011;33538;48.432;11.350;2023-04-08T11:12:03;14.23;;;8.18;;
47778;SDS011;33538;48.432;11.350;2023-04-08T11:14:30;15.30;;;8.18;;
47778;SDS011;33538;48.432;11.350;2023-04-08T11:16:56;14.10;;;7.55;;
47778;SDS011;33538;48.432;11.350;2023-04-08T11:19:23;16.35;;;7.25;;
47778;SDS011;33538;48.432;11.350;2023-04-08T11:21:51;14.75;;;7.40;;
47778;SDS011;33538;48.432;11.350;2023-04-08T11:24:18;13.25;;;7.50;;
47778;SDS011;33538;48.432;11.350;2023-04-08T11:26:46;12.60;;;6.53;;
47778;SDS011;33538;48.432;11.350;2023-04-08T11:29:13;10.82;;;6.63;;
47778;SDS011;33538;48.432;11.350;2023-04-08T11:31:41;14.48;;;7.22;;
47778;SDS011;33538;48.432;11.350;2023-04-08T11:34:09;14.27;;;7.90;;
47778;SDS011;33538;48.432;11.350;2023-04-08T11:36:35;18.90;;;7.13;;
47778;SDS011;33538;48.432;11.350;2023-04-08T11:39:09;18.33;;;8.90;;
47778;SDS011;33538;48.432;11.350;2023-04-08T11:41:36;15.85;;;8.10;;
47778;SDS011;33538;48.432;11.350;2023-04-08T11:44:03;15.60;;;7.60;;
47778;SDS011;33538;48.432;11.350;2023-04-08T11:46:30;10.43;;;6.10;;
47778;SDS011;33538;48.432;11.350;2023-04-08T11:49:07;9.93;;;5.82;;
47778;SDS011;33538;48.432;11.350;2023-04-08T11:51:34;11.95;;;6.65;;
47778;SDS011;33538;48.432;11.350;2023-04-08T11:54:26;10.27;;;6.22;;
47778;SDS011;33538;48.432;11.350;2023-04-08T11:59:19;13.45;;;6.80;;
47778;SDS011;33538;48.432;11.350;2023-04-08T12:01:46;17.90;;;10.07;;
47778;SDS011;33538;48.432;11.350;2023-04-08T12:04:13;17.35;;;9.52;;
47778;SDS011;33538;48.432;11.350;2023-04-08T12:06:40;11.55;;;7.93;;
47778;SDS011;33538;48.432;11.350;2023-04-08T12:09:07;13.82;;;8.95;;
47778;SDS011;33538;48.432;11.350;2023-04-08T12:11:35;12.40;;;6.43;;
47778;SDS011;33538;48.432;11.350;2023-04-08T12:14:02;15.10;;;9.02;;
47778;SDS011;33538;48.432;11.350;2023-04-08T12:16:29;9.93;;;5.97;;
47778;SDS011;33538;48.432;11.350;2023-04-08T12:18:56;9.68;;;5.68;;
47778;SDS011;33538;48.432;11.350;2023-04-08T12:21:23;14.95;;;6.95;;
47778;SDS011;33538;48.432;11.350;2023-04-08T12:23:49;12.00;;;5.97;;
47778;SDS011;33538;48.432;11.350;2023-04-08T12:26:16;12.23;;;6.90;;
47778;SDS011;33538;48.432;11.350;2023-04-08T12:28:45;9.98;;;6.22;;
47778;SDS011;33538;48.432;11.350;2023-04-08T12:31:12;11.38;;;7.40;;
47778;SDS011;33538;48.432;11.350;2023-04-08T12:33:38;14.68;;;8.80;;
47778;SDS011;33538;48.432;11.350;2023-04-08T12:36:05;7.85;;;5.32;;
47778;SDS011;33538;48.432;11.350;2023-04-08T12:38:32;11.57;;;6.13;;
47778;SDS011;33538;48.432;11.350;2023-04-08T12:40:59;10.95;;;5.75;;
47778;SDS011;33538;48.432;11.350;2023-04-08T12:43:26;15.50;;;7.70;;
47778;SDS011;33538;48.432;11.350;2023-04-08T12:45:54;10.20;;;5.72;;
47778;SDS011;33538;48.432;11.350;2023-04-08T12:48:21;8.98;;;5.38;;
47778;SDS011;33538;48.432;11.350;2023-04-08T12:50:48;11.98;;;6.43;;
47778;SDS011;33538;48.432;11.350;2023-04-08T12:53:15;11.57;;;5.72;;
47778;SDS011;33538;48.432;11.350;2023-04-08T12:55:41;16.52;;;8.77;;
47778;SDS011;33538;48.432;11.350;2023-04-08T12:58:10;14.45;;;7.55;;
47778;SDS011;33538;48.432;11.350;2023-04-08T13:00:36;11.95;;;6.30;;
47778;SDS011;33538;48.432;11.350;2023-04-08T13:03:04;9.95;;;6.00;;
47778;SDS011;33538;48.432;11.350;2023-04-08T13:05:31;25.58;;;14.05;;
47778;SDS011;33538;48.432;11.350;2023-04-08T13:08:06;10.07;;;5.85;;
47778;SDS011;33538;48.432;11.350;2023-04-08T13:10:33;9.95;;;5.50;;
47778;SDS011;33538;48.432;11.350;2023-04-08T13:13:00;9.32;;;5.35;;
47778;SDS011;33538;48.432;11.350;2023-04-08T13:15:26;9.52;;;5.85;;
47778;SDS011;33538;48.432;11.350;2023-04-08T13:17:53;10.00;;;5.57;;
47778;SDS011;33538;48.432;11.350;2023-04-08T13:20:21;8.63;;;5.45;;
47778;SDS011;33538;48.432;11.350;2023-04-08T13:22:48;10.48;;;5.57;;
47778;SDS011;33538;48.432;11.350;2023-04-08T13:25:15;8.25;;;5.30;;
47778;SDS011;33538;48.432;11.350;2023-04-08T13:27:42;12.40;;;6.63;;
47778;SDS011;33538;48.432;11.350;2023-04-08T13:30:11;9.85;;;6.05;;
47778;SDS011;33538;48.432;11.350;2023-04-08T13:32:38;10.38;;;5.57;;
47778;SDS011;33538;48.432;11.350;2023-04-08T13:35:05;10.80;;;5.78;;
47778;SDS011;33538;48.432;11.350;2023-04-08T13:37:33;10.15;;;5.95;;
47778;SDS011;33538;48.432;11.350;2023-04-08T13:40:00;11.55;;;6.20;;
47778;SDS011;33538;48.432;11.350;2023-04-08T13:42:27;11.07;;;6.43;;
47778;SDS011;33538;48.432;11.350;2023-04-08T13:44:54;9.68;;;5.53;;
47778;SDS011;33538;48.432;11.350;2023-04-08T13:47:21;12.95;;;5.85;;
47778;SDS011;33538;48.432;11.350;2023-04-08T13:49:48;11.38;;;6.50;;
47778;SDS011;33538;48.432;11.350;2023-04-08T13:52:15;14.80;;;7.00;;
47778;SDS011;33538;48.432;11.350;2023-04-08T13:54:43;12.52;;;6.05;;
47778;SDS011;33538;48.432;11.350;2023-04-08T13:57:09;11.23;;;6.43;;
47778;SDS011;33538;48.432;11.350;2023-04-08T13:59:36;12.15;;;6.57;;
47778;SDS011;33538;48.432;11.350;2023-04-08T14:02:03;11.00;;;6.20;;
47778;SDS011;33538;48.432;11.350;2023-04-08T14:04:30;13.13;;;7.20;;
47778;SDS011;33538;48.432;11.350;2023-04-08T14:06:57;11.55;;;6.22;;
47778;SDS011;33538;48.432;11.350;2023-04-08T14:09:23;12.45;;;6.82;;
47778;SDS011;33538;48.432;11.350;2023-04-08T14:11:52;13.30;;;6.10;;
47778;SDS011;33538;48.432;11.350;2023-04-08T14:14:18;10.77;;;5.93;;
47778;SDS011;33538;48.432;11.350;2023-04-08T14:16:45;13.68;;;6.20;;
47778;SDS011;33538;48.432;11.350;2023-04-08T14:19:12;11.23;;;6.13;;
47778;SDS011;33538;48.432;11.350;2023-04-08T14:21:39;14.57;;;6.75;;
47778;SDS011;33538;48.432;11.350;2023-04-08T14:24:06;12.82;;;7.55;;
47778;SDS011;33538;48.432;11.350;2023-04-08T14:26:32;11.05;;;6.38;;
47778;SDS011;33538;48.432;11.350;2023-04-08T14:29:00;11.32;;;6.63;;
47778;SDS011;33538;48.432;11.350;2023-04-08T14:31:28;15.27;;;7.20;;
47778;SDS011;33538;48.432;11.350;2023-04-08T14:33:55;13.30;;;7.13;;
47778;SDS011;33538;48.432;11.350;2023-04-08T14:36:21;12.63;;;6.53;;
47778;SDS011;33538;48.432;11.350;2023-04-08T14:38:48;11.32;;;6.40;;
47778;SDS011;33538;48.432;11.350;2023-04-08T14:41:16;18.05;;;8.25;;